Time;durP1;ratioP1;P1;durP2;ratioP2;P2;SDS_P1;SDS_P2;PMS_P1;PMS_P2;Temp;Humidity;BMP_temperature;BMP_pressure;BME280_temperature;BME280_humidity;BME280_pressure;Samples;Min_cycle;Max_cycle;Signal;HPM_P1;HPM_P2
2021/07/04 00:01:47;;;;;;;8.77;6.30;;;23.50;69.80;;;;;;5243205;28;20056;-51
2021/07/04 00:04:20;;;;;;;7.28;5.75;;;23.50;69.80;;;;;;5241742;28;20055;-51
2021/07/04 00:06:53;;;;;;;8.60;5.90;;;23.40;69.80;;;;;;5241858;28;20043;-53
2021/07/04 00:09:26;;;;;;;8.48;6.30;;;23.40;69.90;;;;;;5244162;28;20040;-54
2021/07/04 00:11:58;;;;;;;6.47;5.35;;;23.40;69.90;;;;;;5241472;28;20062;-55
2021/07/04 00:14:31;;;;;;;8.63;5.65;;;23.40;69.90;;;;;;5241497;28;20047;-53
2021/07/04 00:17:04;;;;;;;6.47;5.77;;;23.40;70.00;;;;;;5238310;28;20039;-53
2021/07/04 00:19:37;;;;;;;8.65;5.95;;;23.40;70.00;;;;;;5243241;28;20079;-57
2021/07/04 00:22:10;;;;;;;7.25;6.05;;;23.40;70.00;;;;;;5244219;28;20056;-52
2021/07/04 00:24:42;;;;;;;7.93;5.70;;;23.40;70.10;;;;;;5246630;28;20048;-52
2021/07/04 00:27:14;;;;;;;6.45;5.53;;;23.40;70.10;;;;;;5242253;28;20044;-50
2021/07/04 00:29:47;;;;;;;7.88;5.95;;;23.40;70.10;;;;;;5246980;28;20047;-56
2021/07/04 00:32:19;;;;;;;7.32;5.90;;;23.40;70.20;;;;;;5246381;28;20059;-56
2021/07/04 00:35:04;;;;;;;6.90;5.43;;;23.40;70.30;;;;;;5247419;28;20532;-56
2021/07/04 00:37:37;;;;;;;7.22;5.68;;;23.40;70.30;;;;;;5244404;28;20063;-55
2021/07/04 00:40:13;;;;;;;9.25;5.50;;;23.40;70.40;;;;;;5243729;28;20059;-53
2021/07/04 00:42:46;;;;;;;8.30;6.15;;;23.40;70.40;;;;;;5245658;28;20044;-52
2021/07/04 00:45:22;;;;;;;10.10;6.03;;;23.30;70.40;;;;;;5243694;28;20051;-50
2021/07/04 00:47:56;;;;;;;8.00;5.65;;;23.40;70.50;;;;;;5209180;28;20044;-51
2021/07/04 00:50:31;;;;;;;8.38;5.93;;;23.40;70.50;;;;;;5241175;28;20052;-58
2021/07/04 00:53:04;;;;;;;8.75;6.07;;;23.30;70.50;;;;;;5258910;28;20044;-52
2021/07/04 00:55:41;;;;;;;10.13;5.55;;;23.40;70.60;;;;;;5240056;28;20747;-49
2021/07/04 00:58:17;;;;;;;6.57;5.47;;;23.30;70.60;;;;;;5246583;28;20059;-53
2021/07/04 01:00:59;;;;;;;8.07;5.60;;;23.40;70.70;;;;;;5242453;28;20040;-58
2021/07/04 01:03:32;;;;;;;10.15;5.82;;;23.40;70.80;;;;;;5256676;28;20040;-52
2021/07/04 01:06:05;;;;;;;6.82;5.78;;;23.30;70.80;;;;;;5239531;28;20036;-58
2021/07/04 01:08:38;;;;;;;8.17;5.53;;;23.30;70.80;;;;;;5242982;28;20053;-48
2021/07/04 01:11:10;;;;;;;10.20;6.57;;;23.30;70.80;;;;;;5242871;28;20291;-52
2021/07/04 01:13:43;;;;;;;8.98;6.00;;;23.30;70.90;;;;;;5242370;28;20404;-54
2021/07/04 01:16:21;;;;;;;7.97;5.97;;;23.30;70.90;;;;;;5244857;28;20044;-56
2021/07/04 01:18:55;;;;;;;6.78;5.93;;;23.30;70.90;;;;;;5241778;28;20411;-52
2021/07/04 01:21:39;;;;;;;6.38;5.57;;;23.30;70.90;;;;;;5244345;28;20063;-51
2021/07/04 01:24:13;;;;;;;10.50;6.40;;;23.30;71.20;;;;;;5238600;28;20131;-50
2021/07/04 01:26:48;;;;;;;9.05;6.20;;;23.30;71.00;;;;;;5243534;28;20055;-49
2021/07/04 01:29:22;;;;;;;7.68;5.70;;;23.30;71.00;;;;;;5240253;28;20048;-58
2021/07/04 01:31:55;;;;;;;8.70;6.00;;;23.30;71.00;;;;;;5238120;28;20071;-55
2021/07/04 01:34:28;;;;;;;7.23;5.60;;;23.30;71.10;;;;;;5239719;28;20055;-48
2021/07/04 01:37:01;;;;;;;6.90;5.82;;;23.30;71.10;;;;;;5242546;28;20505;-53
2021/07/04 01:39:36;;;;;;;8.23;6.53;;;23.30;71.10;;;;;;5239357;28;20055;-48
2021/07/04 01:42:09;;;;;;;8.05;5.50;;;23.30;71.20;;;;;;5240558;28;20040;-56
2021/07/04 01:44:42;;;;;;;8.70;6.22;;;23.30;71.20;;;;;;5234824;28;20047;-55
2021/07/04 01:47:15;;;;;;;8.23;5.57;;;23.30;71.20;;;;;;5243030;28;20438;-51
2021/07/04 01:49:48;;;;;;;8.93;6.15;;;23.30;71.20;;;;;;5238290;28;20119;-58
2021/07/04 01:52:20;;;;;;;8.43;5.63;;;23.30;71.20;;;;;;5239790;28;20064;-53
2021/07/04 01:54:55;;;;;;;7.78;5.85;;;23.30;71.20;;;;;;5237352;28;20514;-52
2021/07/04 01:57:28;;;;;;;7.88;6.30;;;23.30;71.20;;;;;;5242075;28;20051;-59
2021/07/04 02:00:14;;;;;;;9.00;5.32;;;23.30;71.20;;;;;;5241153;28;20523;-51
2021/07/04 02:02:52;;;;;;;7.20;4.97;;;23.30;71.30;;;;;;5241464;28;20044;-56
2021/07/04 02:05:33;;;;;;;7.75;5.93;;;23.30;71.20;;;;;;5239830;28;20397;-55
2021/07/04 02:08:07;;;;;;;7.85;5.82;;;23.30;71.20;;;;;;5242225;28;20039;-52
2021/07/04 02:10:42;;;;;;;7.32;5.38;;;23.20;71.20;;;;;;5238057;28;20066;-53
2021/07/04 02:13:17;;;;;;;8.32;5.75;;;23.30;71.30;;;;;;5242952;28;20048;-51
2021/07/04 02:15:55;;;;;;;8.30;5.65;;;23.20;71.20;;;;;;5242273;28;20703;-57
2021/07/04 02:18:51;;;;;;;7.72;6.03;;;23.30;71.30;;;;;;5246412;28;20056;-54
2021/07/04 02:21:38;;;;;;;6.80;5.25;;;23.20;71.20;;;;;;5245727;28;20048;-51
2021/07/04 02:24:33;;;;;;;8.45;5.45;;;23.20;71.20;;;;;;5244559;28;20052;-50
2021/07/04 02:27:22;;;;;;;7.18;5.63;;;23.20;71.20;;;;;;5242937;28;20043;-50
2021/07/04 02:30:12;;;;;;;7.82;5.55;;;23.20;71.30;;;;;;5243105;28;20055;-50
2021/07/04 02:32:47;;;;;;;6.18;5.47;;;23.20;71.30;;;;;;5256511;28;20048;-56
2021/07/04 02:35:20;;;;;;;7.40;5.65;;;23.20;71.20;;;;;;5244123;28;20048;-59
2021/07/04 02:37:53;;;;;;;8.93;5.43;;;23.20;71.30;;;;;;5247692;28;20051;-51
2021/07/04 02:40:32;;;;;;;6.40;4.78;;;23.20;71.20;;;;;;5251774;28;20298;-55
2021/07/04 02:43:10;;;;;;;5.20;4.70;;;23.20;70.80;;;;;;5237641;28;20040;-54
2021/07/04 02:45:44;;;;;;;6.15;5.30;;;23.30;70.60;;;;;;5239513;28;20071;-53
2021/07/04 02:48:22;;;;;;;5.75;4.95;;;23.30;70.40;;;;;;5225878;28;20036;-54
2021/07/04 02:50:57;;;;;;;5.63;5.00;;;23.20;70.10;;;;;;5248824;28;20769;-53
2021/07/04 02:53:33;;;;;;;5.97;4.53;;;23.30;70.00;;;;;;5242904;28;20566;-51
2021/07/04 02:56:14;;;;;;;5.72;4.95;;;23.30;69.80;;;;;;5245667;28;20411;-54
2021/07/04 02:58:46;;;;;;;6.87;4.77;;;23.30;69.80;;;;;;5240102;28;20040;-51
2021/07/04 03:01:19;;;;;;;6.33;4.87;;;23.30;69.70;;;;;;5239940;28;20060;-55
2021/07/04 03:03:54;;;;;;;7.15;5.15;;;23.30;69.60;;;;;;5250926;28;20052;-57
2021/07/04 03:06:27;;;;;;;7.47;5.27;;;23.30;69.60;;;;;;5245883;28;20044;-51
2021/07/04 03:08:59;;;;;;;6.57;5.57;;;23.30;69.50;;;;;;5242820;28;20055;-54
2021/07/04 03:11:33;;;;;;;;;;;23.30;69.50;;;;;;5245289;28;20294;-58
2021/07/04 03:14:06;;;;;;;6.68;4.18;;;23.20;69.50;;;;;;5239121;28;19935;-56
2021/07/04 03:16:39;;;;;;;6.75;4.53;;;23.30;69.40;;;;;;5242634;28;20052;-53
2021/07/04 03:19:12;;;;;;;10.02;4.72;;;23.30;69.30;;;;;;5243148;28;20052;-52
2021/07/04 03:21:45;;;;;;;5.60;4.22;;;23.30;69.30;;;;;;5246197;28;20044;-57
2021/07/04 03:24:17;;;;;;;6.05;4.65;;;23.30;69.20;;;;;;5242242;28;20059;-52
2021/07/04 03:26:50;;;;;;;5.63;4.73;;;23.30;69.20;;;;;;5245565;28;20045;-57
2021/07/04 03:29:23;;;;;;;5.80;4.70;;;23.30;69.10;;;;;;5245942;28;20290;-56
2021/07/04 03:31:56;;;;;;;9.00;4.70;;;23.30;69.10;;;;;;5252065;28;20493;-56
2021/07/04 03:34:29;;;;;;;5.53;4.75;;;23.30;69.10;;;;;;5242540;28;20484;-56
2021/07/04 03:37:02;;;;;;;7.03;5.25;;;23.30;69.10;;;;;;5229076;28;20051;-53
2021/07/04 03:39:37;;;;;;;6.10;4.60;;;23.30;69.00;;;;;;5243359;28;20484;-55
2021/07/04 03:42:10;;;;;;;7.85;4.85;;;23.40;69.00;;;;;;5240954;28;20055;-56
2021/07/04 03:44:44;;;;;;;5.75;4.50;;;23.30;68.90;;;;;;5242477;28;20496;-51
2021/07/04 03:47:23;;;;;;;6.35;4.60;;;23.30;68.90;;;;;;5242995;28;20048;-53
2021/07/04 03:49:59;;;;;;;6.53;4.72;;;23.30;68.90;;;;;;5247853;28;20052;-51
2021/07/04 03:52:41;;;;;;;6.38;4.35;;;23.40;68.90;;;;;;5237729;28;20485;-57
2021/07/04 03:55:20;;;;;;;5.65;3.97;;;23.30;69.00;;;;;;5239666;28;20060;-51
2021/07/04 03:57:53;;;;;;;4.97;4.25;;;23.30;68.90;;;;;;5246973;28;20057;-50
2021/07/04 04:00:33;;;;;;;5.18;3.92;;;23.30;68.90;;;;;;5246354;28;20047;-50
2021/07/04 04:03:13;;;;;;;5.75;4.50;;;23.30;68.80;;;;;;5241107;28;20052;-53
2021/07/04 04:05:57;;;;;;;5.70;4.45;;;23.30;68.90;;;;;;5242986;28;20044;-57
2021/07/04 04:08:34;;;;;;;5.80;4.78;;;23.30;68.80;;;;;;5258001;28;20071;-57
2021/07/04 04:11:08;;;;;;;8.30;4.93;;;23.40;68.90;;;;;;5243036;28;21546;-48
2021/07/04 04:13:48;;;;;;;6.00;4.70;;;23.30;68.80;;;;;;5238836;28;21212;-52
2021/07/04 04:16:26;;;;;;;4.65;4.15;;;23.30;68.70;;;;;;5244343;28;21011;-54
2021/07/04 04:18:59;;;;;;;7.93;4.53;;;23.30;68.70;;;;;;5246644;28;20510;-53
2021/07/04 04:21:33;;;;;;;5.53;4.30;;;23.30;68.80;;;;;;5237584;28;20040;-55
2021/07/04 04:24:10;;;;;;;7.55;4.15;;;23.30;68.70;;;;;;5239185;28;20044;-51
2021/07/04 04:26:44;;;;;;;;;;;23.30;68.70;;;;;;5241747;28;25137;-49
2021/07/04 04:29:18;;;;;;;5.63;4.20;;;23.30;68.70;;;;;;5247278;28;19927;-54
2021/07/04 04:31:51;;;;;;;5.82;3.80;;;23.30;68.70;;;;;;5241002;28;20081;-56
2021/07/04 04:34:23;;;;;;;5.35;3.97;;;23.30;68.80;;;;;;5220557;28;20448;-56
2021/07/04 04:37:01;;;;;;;6.93;4.13;;;23.30;68.70;;;;;;5230470;28;20063;-49
2021/07/04 04:39:34;;;;;;;6.25;4.03;;;23.30;68.80;;;;;;5242981;28;20044;-53
2021/07/04 04:42:07;;;;;;;8.27;4.32;;;23.30;68.70;;;;;;5239038;28;20048;-53
2021/07/04 04:44:40;;;;;;;4.63;4.10;;;23.30;68.80;;;;;;5228719;28;20040;-54
2021/07/04 04:47:12;;;;;;;6.05;4.15;;;23.30;68.80;;;;;;5240598;28;20055;-50
2021/07/04 04:49:46;;;;;;;6.30;4.55;;;23.30;68.90;;;;;;5241544;28;20032;-49
2021/07/04 04:52:18;;;;;;;7.03;4.72;;;23.30;68.90;;;;;;5239022;28;20044;-52
2021/07/04 04:54:51;;;;;;;5.83;4.60;;;23.30;68.90;;;;;;5243275;28;20631;-50
2021/07/04 04:57:23;;;;;;;4.63;4.00;;;23.40;69.00;;;;;;5244979;28;20063;-52
2021/07/04 04:59:56;;;;;;;5.35;4.38;;;23.40;69.00;;;;;;5240615;28;20424;-51
2021/07/04 05:02:28;;;;;;;6.50;4.60;;;23.40;69.00;;;;;;5233626;28;20678;-51
2021/07/04 05:05:02;;;;;;;5.25;4.30;;;23.30;68.90;;;;;;5245019;28;20414;-49
2021/07/04 05:07:34;;;;;;;5.85;4.10;;;23.40;69.00;;;;;;5231724;28;20052;-54
2021/07/04 05:10:07;;;;;;;6.32;4.38;;;23.40;68.90;;;;;;5215488;28;20040;-51
2021/07/04 05:12:40;;;;;;;6.65;4.53;;;23.40;68.90;;;;;;5240903;28;20756;-57
2021/07/04 05:15:13;;;;;;;5.13;4.40;;;23.40;69.00;;;;;;5233365;28;20063;-58
2021/07/04 05:17:46;;;;;;;4.27;3.87;;;23.30;68.90;;;;;;5242073;28;20039;-52
2021/07/04 05:20:20;;;;;;;5.82;4.13;;;23.30;68.90;;;;;;5226536;28;20306;-53
2021/07/04 05:22:53;;;;;;;6.13;4.53;;;23.30;68.90;;;;;;5231527;28;20052;-48
2021/07/04 05:25:25;;;;;;;5.10;4.07;;;23.40;69.40;;;;;;5222481;28;20448;-52
2021/07/04 05:27:58;;;;;;;8.10;4.50;;;23.30;68.80;;;;;;5234673;28;20765;-49
2021/07/04 05:30:30;;;;;;;5.68;3.90;;;23.30;68.80;;;;;;5240345;28;20051;-49
2021/07/04 05:33:03;;;;;;;4.75;3.78;;;23.30;68.90;;;;;;5244705;28;20044;-55
2021/07/04 05:35:36;;;;;;;7.20;3.70;;;23.30;68.80;;;;;;5238061;28;20071;-54
2021/07/04 05:38:22;;;;;;;6.03;3.40;;;23.30;68.70;;;;;;5238119;28;20466;-54
2021/07/04 05:40:54;;;;;;;5.43;3.92;;;23.30;68.70;;;;;;5242603;28;20401;-51
2021/07/04 05:43:27;;;;;;;5.05;3.75;;;23.30;68.70;;;;;;5242315;28;20523;-54
2021/07/04 05:46:00;;;;;;;5.13;3.80;;;23.30;68.70;;;;;;5232743;28;20052;-50
2021/07/04 05:48:35;;;;;;;6.50;4.30;;;23.30;68.70;;;;;;5242571;28;21031;-55
2021/07/04 05:51:08;;;;;;;5.60;4.00;;;23.30;68.70;;;;;;5245182;28;20066;-49
2021/07/04 05:53:46;;;;;;;5.07;3.53;;;23.30;68.70;;;;;;5227901;28;20048;-49
2021/07/04 05:56:19;;;;;;;4.85;4.22;;;23.30;68.80;;;;;;5229653;28;20036;-53
2021/07/04 06:08:38;;;;;;;4.53;4.10;;;23.30;68.90;;;;;;5226652;28;20039;-52
2021/07/04 06:11:10;;;;;;;5.90;3.95;;;23.30;69.10;;;;;;5233446;28;20048;-58
2021/07/04 06:13:43;;;;;;;11.00;4.63;;;23.30;69.10;;;;;;5230307;28;20052;-57
2021/07/04 06:16:15;;;;;;;8.98;3.83;;;23.30;69.10;;;;;;5227161;28;20052;-52
2021/07/04 06:18:48;;;;;;;8.65;3.80;;;23.30;69.10;;;;;;5218526;28;20560;-53
2021/07/04 06:21:20;;;;;;;5.03;4.20;;;23.30;69.10;;;;;;5238022;28;20460;-55
2021/07/04 06:23:52;;;;;;;4.57;3.45;;;23.30;69.10;;;;;;5237259;28;20428;-51
2021/07/04 06:26:25;;;;;;;4.95;3.38;;;23.30;69.10;;;;;;5238293;28;20040;-50
2021/07/04 06:28:57;;;;;;;6.25;4.25;;;23.30;69.10;;;;;;5235366;28;20044;-51
2021/07/04 06:31:30;;;;;;;9.77;4.05;;;23.30;69.10;;;;;;5248253;28;20036;-53
2021/07/04 06:34:03;;;;;;;14.57;3.97;;;23.30;69.80;;;;;;5246772;28;20059;-56
2021/07/04 06:36:36;;;;;;;5.03;4.00;;;23.30;69.10;;;;;;5222206;28;21216;-54
2021/07/04 06:39:08;;;;;;;6.93;3.90;;;23.30;69.10;;;;;;5236895;28;20059;-53
2021/07/04 06:41:40;;;;;;;6.00;4.00;;;23.30;69.10;;;;;;5235005;28;20068;-51
2021/07/04 06:44:13;;;;;;;10.55;4.18;;;23.30;69.20;;;;;;5237499;28;20052;-58
2021/07/04 06:46:57;;;;;;;8.38;4.05;;;23.30;69.20;;;;;;5224957;28;20508;-50
2021/07/04 06:49:30;;;;;;;11.33;4.10;;;23.30;69.20;;;;;;5237292;28;21211;-53
2021/07/04 06:52:04;;;;;;;8.27;3.45;;;23.30;69.20;;;;;;5240878;28;20052;-55
2021/07/04 06:54:36;;;;;;;6.82;4.13;;;23.30;69.20;;;;;;5241718;28;20048;-52
2021/07/04 06:57:27;;;;;;;10.73;4.20;;;23.30;69.30;;;;;;5244777;28;20051;-48
2021/07/04 07:00:04;;;;;;;14.68;4.25;;;23.30;69.30;;;;;;5245010;28;20052;-54
2021/07/04 07:02:37;;;;;;;8.30;4.20;;;23.30;69.40;;;;;;5245669;28;20063;-51
2021/07/04 07:05:12;;;;;;;8.52;4.25;;;23.30;69.40;;;;;;5240617;28;20055;-57
2021/07/04 07:07:44;;;;;;;7.35;4.07;;;23.30;69.40;;;;;;5242301;28;20745;-56
2021/07/04 07:10:17;;;;;;;8.65;3.95;;;23.30;69.40;;;;;;5245666;28;20040;-56
2021/07/04 07:12:53;;;;;;;8.05;4.07;;;23.30;69.40;;;;;;5243131;28;20662;-59
2021/07/04 07:15:32;;;;;;;10.65;4.45;;;23.30;69.40;;;;;;5254329;28;20048;-52
2021/07/04 07:18:04;;;;;;;6.68;4.28;;;23.30;69.40;;;;;;5255674;28;20055;-56
2021/07/04 07:20:37;;;;;;;9.52;3.75;;;23.30;69.50;;;;;;5246007;28;20055;-55
2021/07/04 07:23:11;;;;;;;5.65;3.65;;;23.30;69.50;;;;;;5244368;28;20071;-57
2021/07/04 07:25:46;;;;;;;8.43;4.25;;;23.30;69.50;;;;;;5243168;28;20045;-53
2021/07/04 07:28:18;;;;;;;7.28;3.95;;;23.40;69.70;;;;;;5249906;28;20047;-55
2021/07/04 07:30:59;;;;;;;4.57;3.63;;;23.30;69.60;;;;;;5244291;28;20047;-51
2021/07/04 07:33:35;;;;;;;6.63;3.67;;;23.30;69.60;;;;;;5231680;28;20059;-50
2021/07/04 07:36:10;;;;;;;6.53;3.38;;;23.30;69.50;;;;;;5237029;28;20053;-54
2021/07/04 07:38:42;;;;;;;7.00;3.75;;;23.30;69.60;;;;;;5242703;28;20040;-51
2021/07/04 07:41:15;;;;;;;6.95;3.72;;;23.30;70.30;;;;;;5235638;28;20044;-55
2021/07/04 07:43:48;;;;;;;7.43;4.05;;;23.30;70.50;;;;;;5225881;28;20737;-59
2021/07/04 07:46:20;;;;;;;5.88;4.13;;;23.30;70.90;;;;;;5244639;28;20047;-52
2021/07/04 07:48:53;;;;;;;5.97;3.75;;;23.30;70.90;;;;;;5243651;28;20044;-54
2021/07/04 07:51:52;;;;;;;5.63;3.47;;;23.30;71.30;;;;;;5238732;28;20044;-58
2021/07/04 07:54:33;;;;;;;6.18;3.50;;;23.30;71.80;;;;;;5243008;28;20052;-53
2021/07/04 07:57:07;;;;;;;5.10;3.88;;;23.30;71.90;;;;;;5242746;28;22148;-54
2021/07/04 07:59:44;;;;;;;5.35;3.80;;;23.20;72.10;;;;;;5232242;28;20055;-56
2021/07/04 08:02:16;;;;;;;8.23;3.90;;;23.20;72.40;;;;;;5235571;28;20048;-53
2021/07/04 08:04:49;;;;;;;7.15;3.75;;;23.20;72.30;;;;;;5225630;28;20036;-51
2021/07/04 08:07:23;;;;;;;;;;;23.20;72.30;;;;;;5232173;28;20048;-50
2021/07/04 08:09:55;;;;;;;4.78;3.35;;;23.20;71.90;;;;;;5238070;28;19924;-52
2021/07/04 08:12:27;;;;;;;5.70;3.58;;;23.30;71.30;;;;;;5241172;28;20086;-52
2021/07/04 08:15:00;;;;;;;7.65;3.72;;;23.30;70.90;;;;;;5237645;28;20048;-55
2021/07/04 08:17:33;;;;;;;5.20;4.20;;;23.40;71.20;;;;;;5236102;28;20048;-50
2021/07/04 08:20:08;;;;;;;4.45;3.47;;;23.40;71.10;;;;;;5237516;28;20047;-51
2021/07/04 08:22:40;;;;;;;3.90;3.17;;;23.40;71.30;;;;;;5236181;28;20661;-56
2021/07/04 08:25:14;;;;;;;4.07;3.67;;;23.40;71.00;;;;;;5238275;28;20429;-55
2021/07/04 08:27:47;;;;;;;5.95;3.40;;;23.40;71.80;;;;;;5227644;28;20044;-57
2021/07/04 08:30:19;;;;;;;6.83;3.67;;;23.40;71.60;;;;;;5239730;28;20059;-51
2021/07/04 08:32:52;;;;;;;6.27;3.43;;;23.40;71.80;;;;;;5246410;28;21445;-51
2021/07/04 08:35:24;;;;;;;6.85;3.45;;;23.40;71.10;;;;;;5243659;28;20306;-57
2021/07/04 08:37:57;;;;;;;4.55;3.30;;;23.40;71.00;;;;;;5246521;28;20420;-58
2021/07/04 08:40:30;;;;;;;7.22;3.50;;;23.40;70.80;;;;;;5238240;28;20044;-58
2021/07/04 08:43:04;;;;;;;7.47;3.22;;;23.40;71.20;;;;;;5245674;28;20047;-55
2021/07/04 08:45:38;;;;;;;4.60;3.20;;;23.50;70.80;;;;;;5232975;28;20475;-54
2021/07/04 08:48:11;;;;;;;6.85;3.03;;;23.50;70.70;;;;;;5242702;28;20036;-53
2021/07/04 08:50:43;;;;;;;9.07;3.05;;;23.50;70.70;;;;;;5245917;28;20044;-52
2021/07/04 08:53:16;;;;;;;6.22;3.22;;;23.60;71.30;;;;;;5245566;28;20742;-51
2021/07/04 08:55:49;;;;;;;7.47;3.93;;;23.60;70.60;;;;;;5246022;28;20043;-53
2021/07/04 08:58:24;;;;;;;6.97;3.63;;;23.60;70.60;;;;;;5238178;28;20055;-57
2021/07/04 09:01:09;;;;;;;6.35;3.25;;;23.60;70.70;;;;;;5238104;28;20127;-54
2021/07/04 09:03:51;;;;;;;12.70;3.42;;;23.60;70.60;;;;;;5241408;28;20044;-54
2021/07/04 09:06:43;;;;;;;8.30;3.20;;;23.60;70.60;;;;;;5226465;28;20067;-59
2021/07/04 09:09:30;;;;;;;8.23;3.38;;;23.60;70.50;;;;;;5233707;28;20055;-56
2021/07/04 09:12:03;;;;;;;5.75;3.30;;;23.70;70.60;;;;;;5231513;28;20528;-51
2021/07/04 09:14:44;;;;;;;6.82;3.05;;;23.60;70.50;;;;;;5216238;28;20067;-54
2021/07/04 09:17:34;;;;;;;7.38;3.75;;;23.70;70.60;;;;;;5237435;28;20055;-56
2021/07/04 09:20:11;;;;;;;5.15;3.20;;;23.70;70.70;;;;;;5237715;28;20725;-55
2021/07/04 09:22:50;;;;;;;4.88;2.97;;;23.70;70.80;;;;;;5243566;28;20055;-52
2021/07/04 09:25:25;;;;;;;5.13;3.08;;;23.70;70.70;;;;;;5246489;28;20051;-53
2021/07/04 09:28:10;;;;;;;8.93;3.40;;;23.80;70.60;;;;;;5243383;28;20051;-52
2021/07/04 09:30:46;;;;;;;8.05;2.90;;;23.80;70.50;;;;;;5239170;28;20047;-63
2021/07/04 09:33:25;;;;;;;5.93;3.70;;;23.80;70.40;;;;;;5231114;28;20036;-54
2021/07/04 09:35:59;;;;;;;7.07;3.40;;;23.90;70.50;;;;;;5226142;28;20048;-55
2021/07/04 09:38:36;;;;;;;7.95;3.53;;;23.80;70.30;;;;;;5242768;28;20867;-55
2021/07/04 09:41:12;;;;;;;10.85;3.80;;;23.80;70.50;;;;;;5239001;28;20432;-57
2021/07/04 09:43:45;;;;;;;9.00;3.47;;;23.80;70.60;;;;;;5238578;28;20059;-53
2021/07/04 09:46:18;;;;;;;18.00;3.95;;;23.80;70.60;;;;;;5236043;28;20040;-55
2021/07/04 09:48:53;;;;;;;9.98;3.65;;;23.80;70.60;;;;;;5231262;28;20048;-51
2021/07/04 09:51:27;;;;;;;11.63;3.58;;;23.80;70.60;;;;;;5231336;28;20043;-53
2021/07/04 09:54:01;;;;;;;4.68;3.60;;;23.90;70.60;;;;;;5234597;28;20048;-56
2021/07/04 09:56:35;;;;;;;9.25;3.97;;;23.90;70.60;;;;;;5233841;28;20063;-54
2021/07/04 09:59:21;;;;;;;6.75;3.67;;;23.90;70.50;;;;;;5238317;28;20040;-53
2021/07/04 10:01:53;;;;;;;16.10;4.00;;;23.90;70.40;;;;;;5239558;28;20066;-55
2021/07/04 10:04:27;;;;;;;6.53;3.38;;;23.90;70.40;;;;;;5244868;28;20036;-54
2021/07/04 10:06:59;;;;;;;9.98;3.95;;;23.90;70.30;;;;;;5238312;28;20044;-56
2021/07/04 10:09:32;;;;;;;9.18;3.08;;;23.90;70.30;;;;;;5236748;28;20050;-54
2021/07/04 10:12:05;;;;;;;17.73;3.92;;;24.00;70.30;;;;;;5247061;28;20052;-56
2021/07/04 10:14:38;;;;;;;16.00;4.28;;;23.90;70.20;;;;;;5231066;28;20086;-51
2021/07/04 10:17:11;;;;;;;17.77;3.60;;;24.00;70.10;;;;;;5223969;28;20060;-56
2021/07/04 10:19:43;;;;;;;12.82;4.07;;;24.00;70.00;;;;;;5223183;28;20246;-56
2021/07/04 10:22:16;;;;;;;14.40;4.00;;;24.00;70.00;;;;;;5226964;28;20051;-55
2021/07/04 10:24:49;;;;;;;14.83;3.90;;;24.00;69.90;;;;;;5222448;28;20067;-53
2021/07/04 10:27:22;;;;;;;18.80;3.45;;;24.00;69.80;;;;;;5232408;28;20052;-57
2021/07/04 10:29:55;;;;;;;12.43;3.70;;;24.00;69.70;;;;;;5224141;28;20051;-51
2021/07/04 10:32:28;;;;;;;13.85;4.22;;;24.00;69.70;;;;;;5225934;28;20063;-57
2021/07/04 10:35:08;;;;;;;10.38;3.78;;;24.00;69.60;;;;;;5226131;28;20428;-57
2021/07/04 10:37:41;;;;;;;8.23;3.50;;;24.00;69.50;;;;;;5221422;28;20040;-58
2021/07/04 10:40:18;;;;;;;;;;;24.00;69.50;;;;;;5215796;28;21227;-54
2021/07/04 10:42:50;;;;;;;8.00;3.33;;;23.90;69.40;;;;;;5221742;28;20123;-56
2021/07/04 10:45:32;;;;;;;6.27;3.80;;;23.90;69.50;;;;;;5217667;28;20053;-60
2021/07/04 10:48:24;;;;;;;8.85;3.38;;;23.90;69.40;;;;;;5242742;28;20351;-53
2021/07/04 10:51:10;;;;;;;6.80;3.75;;;23.90;69.40;;;;;;5243963;28;20056;-55
2021/07/04 10:53:45;;;;;;;5.60;3.25;;;24.00;69.40;;;;;;5244829;28;20047;-56
2021/07/04 10:56:33;;;;;;;7.88;3.80;;;24.00;69.30;;;;;;5237857;28;20055;-55
2021/07/04 10:59:10;;;;;;;9.63;3.42;;;24.00;69.20;;;;;;5236262;28;20652;-54
2021/07/04 11:01:53;;;;;;;6.75;3.40;;;24.00;69.90;;;;;;5230601;28;20056;-56
2021/07/04 11:04:31;;;;;;;13.93;3.97;;;24.00;69.20;;;;;;5238496;28;20048;-53
2021/07/04 11:07:05;;;;;;;6.95;3.20;;;24.00;69.20;;;;;;5245813;28;20772;-53
2021/07/04 11:10:09;;;;;;;10.43;3.45;;;24.00;69.20;;;;;;5235239;28;20044;-59
2021/07/04 11:12:42;;;;;;;;;;;24.00;69.10;;;;;;5238459;28;20063;-54
2021/07/04 11:15:14;;;;;;;11.57;3.38;;;24.00;69.20;;;;;;5236672;28;19929;-54
2021/07/04 11:17:59;;;;;;;7.03;3.35;;;24.00;69.20;;;;;;5241164;28;20048;-53
2021/07/04 11:20:42;;;;;;;9.88;3.00;;;24.00;69.20;;;;;;5234867;28;20062;-57
2021/07/04 11:23:27;;;;;;;4.88;3.33;;;24.00;69.10;;;;;;5237955;28;20686;-50
2021/07/04 11:26:10;;;;;;;7.75;3.47;;;24.00;69.20;;;;;;5239196;28;20036;-58
2021/07/04 11:28:47;;;;;;;9.13;3.08;;;24.00;69.00;;;;;;5233019;28;20040;-52
2021/07/04 11:31:20;;;;;;;4.18;3.33;;;24.00;68.90;;;;;;5238923;28;20070;-54
2021/07/04 11:33:54;;;;;;;7.38;3.17;;;24.00;68.90;;;;;;5229087;28;20055;-53
2021/07/04 11:36:28;;;;;;;5.28;3.47;;;24.10;68.80;;;;;;5232965;28;20041;-56
2021/07/04 11:39:11;;;;;;;6.50;3.60;;;24.10;68.70;;;;;;5235458;28;20043;-56
2021/07/04 11:41:44;;;;;;;6.18;3.28;;;24.10;68.60;;;;;;5224529;28;20052;-53
2021/07/04 11:44:19;;;;;;;9.60;3.92;;;24.10;68.50;;;;;;5223599;28;20045;-54
2021/07/04 11:46:53;;;;;;;9.45;4.50;;;24.10;68.70;;;;;;5235117;28;20051;-53
2021/07/04 11:49:27;;;;;;;11.05;5.43;;;24.10;68.70;;;;;;5237360;28;20051;-59
2021/07/04 11:52:02;;;;;;;12.02;6.30;;;24.10;68.70;;;;;;5234933;28;20060;-59
2021/07/04 11:54:35;;;;;;;16.02;7.63;;;24.10;68.70;;;;;;5236835;28;20605;-51
2021/07/04 12:00:09;;;;;;;14.65;8.48;;;24.00;69.40;;;;;;5236917;28;20523;-57
2021/07/04 12:02:48;;;;;;;21.13;9.93;;;24.00;68.90;;;;;;5236522;28;20677;-58
2021/07/04 12:05:21;;;;;;;22.00;9.57;;;24.00;68.90;;;;;;5232703;28;20056;-54
2021/07/04 12:07:55;;;;;;;24.65;10.75;;;24.00;69.20;;;;;;5239436;28;20040;-57
2021/07/04 12:10:28;;;;;;;25.80;11.57;;;24.00;69.00;;;;;;5246926;28;20494;-53
2021/07/04 12:13:01;;;;;;;27.88;12.55;;;24.10;69.30;;;;;;5241111;28;20040;-57
2021/07/04 12:15:37;;;;;;;27.55;12.05;;;24.10;69.60;;;;;;5242905;28;20047;-52
2021/07/04 12:18:12;;;;;;;28.30;12.77;;;24.10;69.70;;;;;;5244705;28;20044;-57
2021/07/04 12:20:53;;;;;;;22.92;11.88;;;24.10;69.70;;;;;;5223381;28;20063;-52
2021/07/04 12:23:27;;;;;;;23.45;11.38;;;24.20;69.90;;;;;;5220404;28;20059;-63
2021/07/04 12:26:07;;;;;;;23.52;11.18;;;24.20;69.80;;;;;;5212768;28;20068;-52
2021/07/04 12:28:39;;;;;;;22.35;11.13;;;24.20;69.70;;;;;;5216024;28;20186;-53
2021/07/04 12:31:15;;;;;;;24.67;11.77;;;24.30;69.70;;;;;;5219151;28;20044;-59
2021/07/04 12:33:47;;;;;;;27.65;11.40;;;24.30;69.70;;;;;;5205484;28;20048;-58
2021/07/04 12:36:21;;;;;;;26.17;11.73;;;24.40;69.50;;;;;;5223330;28;20063;-55
2021/07/04 12:38:53;;;;;;;21.83;11.02;;;24.50;69.50;;;;;;5217532;28;20047;-61
2021/07/04 12:41:33;;;;;;;23.85;10.75;;;24.50;69.40;;;;;;5205157;28;20518;-57
2021/07/04 12:44:14;;;;;;;25.33;11.20;;;24.60;69.30;;;;;;5226270;28;20508;-59
2021/07/04 12:46:46;;;;;;;28.52;11.27;;;24.60;69.10;;;;;;5229438;28;20675;-55
2021/07/04 12:49:19;;;;;;;24.27;11.77;;;24.60;68.90;;;;;;5219446;27;20047;-55
2021/07/04 12:51:51;;;;;;;23.20;10.07;;;24.70;68.70;;;;;;5221388;28;20688;-57
2021/07/04 12:54:30;;;;;;;23.13;11.23;;;24.70;68.50;;;;;;5204715;28;20057;-57
2021/07/04 12:57:06;;;;;;;26.42;10.63;;;24.70;68.20;;;;;;5202510;28;20390;-60
2021/07/04 12:59:39;;;;;;;23.50;11.02;;;24.80;68.10;;;;;;5209401;28;20070;-55
2021/07/04 13:02:11;;;;;;;24.85;10.27;;;24.80;67.90;;;;;;5233313;28;20055;-58
2021/07/04 13:04:48;;;;;;;16.88;9.35;;;24.80;67.90;;;;;;5224407;28;20052;-58
2021/07/04 13:07:21;;;;;;;20.02;10.40;;;24.80;67.60;;;;;;5223326;28;20660;-62
2021/07/04 13:09:54;;;;;;;;;;;24.90;67.50;;;;;;5215353;28;20048;-54
2021/07/04 13:12:26;;;;;;;23.00;10.10;;;24.80;67.40;;;;;;5218285;28;19928;-56
2021/07/04 13:14:59;;;;;;;19.55;9.90;;;24.90;67.50;;;;;;5230413;28;20048;-58
2021/07/04 13:17:38;;;;;;;23.15;9.57;;;24.90;67.20;;;;;;5223440;28;20048;-55
2021/07/04 13:20:11;;;;;;;22.70;10.18;;;24.90;67.10;;;;;;5233306;28;20444;-61
2021/07/04 13:22:49;;;;;;;19.63;10.13;;;25.00;67.10;;;;;;5220102;28;20047;-61
2021/07/04 13:25:30;;;;;;;20.95;10.25;;;25.00;66.90;;;;;;5222095;28;20404;-62
2021/07/04 13:28:13;;;;;;;17.42;10.20;;;25.00;66.80;;;;;;5235644;28;20086;-59
2021/07/04 13:30:52;;;;;;;17.80;9.88;;;25.00;66.70;;;;;;5231985;28;20543;-58
2021/07/04 13:33:33;;;;;;;20.52;9.90;;;25.00;66.60;;;;;;5236583;28;20044;-60
2021/07/04 13:36:14;;;;;;;18.52;9.85;;;25.00;66.60;;;;;;5228244;28;20055;-58
2021/07/04 13:39:01;;;;;;;18.75;8.95;;;25.00;66.40;;;;;;5233234;28;20470;-54
2021/07/04 13:41:33;;;;;;;16.60;9.02;;;25.00;66.40;;;;;;5237628;28;20036;-53